sensor_id;sensor_type;location;lat;lon;timestamp;P1;durP1;ratioP1;P2;durP2;ratioP2
12721;SDS011;6425;50.316;8.114;2023-03-22T00:00:00;7.8;;;4.9;;
12721;SDS011;6425;50.316;8.114;2023-03-22T00:03:00;7.8;;;4.9;;
12721;SDS011;6425;50.316;8.114;2023-03-22T00:06:00;8.5;;;5.4;;
12721;SDS011;6425;50.316;8.114;2023-03-22T00:09:00;8.5;;;5.4;;
12721;SDS011;6425;50.316;8.114;2023-03-22T00:12:00;8.5;;;5.4;;
12721;SDS011;6425;50.316;8.114;2023-03-22T00:15:00;8.5;;;5.4;;
12721;SDS011;6425;50.316;8.114;2023-03-22T00:18:00;8.5;;;5.4;;
12721;SDS011;6425;50.316;8.114;2023-03-22T00:21:00;8.5;;;5.4;;
12721;SDS011;6425;50.316;8.114;2023-03-22T00:24:00;8.5;;;5.4;;
12721;SDS011;6425;50.316;8.114;2023-03-22T00:27:00;8.5;;;5.4;;
12721;SDS011;6425;50.316;8.114;2023-03-22T00:30:00;5.7;;;4.2;;
12721;SDS011;6425;50.316;8.114;2023-03-22T00:33:00;5.7;;;4.2;;
12721;SDS011;6425;50.316;8.114;2023-03-22T00:36:00;5.7;;;4.2;;
12721;SDS011;6425;50.316;8.114;2023-03-22T00:39:00;5.7;;;4.2;;
12721;SDS011;6425;50.316;8.114;2023-03-22T00:42:00;5.7;;;4.2;;
12721;SDS011;6425;50.316;8.114;2023-03-22T00:45:00;5.7;;;4.2;;
12721;SDS011;6425;50.316;8.114;2023-03-22T00:48:00;5.7;;;4.2;;
12721;SDS011;6425;50.316;8.114;2023-03-22T00:51:00;5.7;;;4.2;;
12721;SDS011;6425;50.316;8.114;2023-03-22T00:54:00;8.1;;;5.4;;
12721;SDS011;6425;50.316;8.114;2023-03-22T00:57:00;8.1;;;5.4;;
12721;SDS011;6425;50.316;8.114;2023-03-22T01:00:00;8.1;;;5.4;;
12721;SDS011;6425;50.316;8.114;2023-03-22T01:03:00;8.1;;;5.4;;
12721;SDS011;6425;50.316;8.114;2023-03-22T01:06:00;8.1;;;5.4;;
12721;SDS011;6425;50.316;8.114;2023-03-22T01:09:00;6.7;;;4.8;;
12721;SDS011;6425;50.316;8.114;2023-03-22T01:12:00;6.7;;;4.8;;
12721;SDS011;6425;50.316;8.114;2023-03-22T01:15:00;6.7;;;4.8;;
12721;SDS011;6425;50.316;8.114;2023-03-22T01:18:00;6.1;;;5.1;;
12721;SDS011;6425;50.316;8.114;2023-03-22T01:21:00;6.1;;;5.1;;
12721;SDS011;6425;50.316;8.114;2023-03-22T01:24:00;6.1;;;5.1;;
12721;SDS011;6425;50.316;8.114;2023-03-22T01:27:00;8.7;;;5.4;;
12721;SDS011;6425;50.316;8.114;2023-03-22T01:30:00;8.7;;;5.4;;
12721;SDS011;6425;50.316;8.114;2023-03-22T01:33:00;15.7;;;5.8;;
12721;SDS011;6425;50.316;8.114;2023-03-22T01:36:00;15.7;;;5.8;;
12721;SDS011;6425;50.316;8.114;2023-03-22T01:39:00;7.5;;;6;;
12721;SDS011;6425;50.316;8.114;2023-03-22T01:42:00;8.1;;;5.5;;
12721;SDS011;6425;50.316;8.114;2023-03-22T01:45:33;8.1;;;5.5;;
12721;SDS011;6425;50.316;8.114;2023-03-22T01:48:01;8.3;;;5.5;;
12721;SDS011;6425;50.316;8.114;2023-03-22T01:51:02;8.3;;;5.5;;
12721;SDS011;6425;50.316;8.114;2023-03-22T01:54:00;10.1;;;6.4;;
12721;SDS011;6425;50.316;8.114;2023-03-22T01:57:00;10.1;;;6.4;;
12721;SDS011;6425;50.316;8.114;2023-03-22T02:00:00;7.9;;;5.7;;
12721;SDS011;6425;50.316;8.114;2023-03-22T02:03:00;7.9;;;5.7;;
12721;SDS011;6425;50.316;8.114;2023-03-22T02:06:00;9.8;;;6.4;;
12721;SDS011;6425;50.316;8.114;2023-03-22T02:09:00;7.3;;;5.8;;
12721;SDS011;6425;50.316;8.114;2023-03-22T02:12:01;8.3;;;6;;
12721;SDS011;6425;50.316;8.114;2023-03-22T02:15:02;8.3;;;6;;
12721;SDS011;6425;50.316;8.114;2023-03-22T02:18:04;7.7;;;5.9;;
12721;SDS011;6425;50.316;8.114;2023-03-22T02:21:07;7.7;;;5.9;;
12721;SDS011;6425;50.316;8.114;2023-03-22T02:24:19;11.2;;;6.7;;
12721;SDS011;6425;50.316;8.114;2023-03-22T02:27:05;11.1;;;6;;
12721;SDS011;6425;50.316;8.114;2023-03-22T02:30:04;11.1;;;6;;
12721;SDS011;6425;50.316;8.114;2023-03-22T02:33:01;13.3;;;6.2;;
12721;SDS011;6425;50.316;8.114;2023-03-22T02:36:33;10.3;;;6.1;;
12721;SDS011;6425;50.316;8.114;2023-03-22T02:39:03;9.3;;;6.1;;
12721;SDS011;6425;50.316;8.114;2023-03-22T02:42:06;7.7;;;5.6;;
12721;SDS011;6425;50.316;8.114;2023-03-22T02:45:00;7.7;;;5.6;;
12721;SDS011;6425;50.316;8.114;2023-03-22T02:48:01;10.1;;;5.7;;
12721;SDS011;6425;50.316;8.114;2023-03-22T02:51:01;8.2;;;5.5;;
12721;SDS011;6425;50.316;8.114;2023-03-22T02:54:01;8.2;;;5.5;;
12721;SDS011;6425;50.316;8.114;2023-03-22T02:57:00;8;;;5.3;;
12721;SDS011;6425;50.316;8.114;2023-03-22T03:00:00;8;;;5.3;;
12721;SDS011;6425;50.316;8.114;2023-03-22T03:03:00;6.9;;;5.5;;
12721;SDS011;6425;50.316;8.114;2023-03-22T03:06:00;8;;;5.8;;
12721;SDS011;6425;50.316;8.114;2023-03-22T03:09:00;8;;;5.8;;
12721;SDS011;6425;50.316;8.114;2023-03-22T03:12:00;11.7;;;5.9;;
12721;SDS011;6425;50.316;8.114;2023-03-22T03:15:00;11.7;;;5.9;;
12721;SDS011;6425;50.316;8.114;2023-03-22T03:18:04;8.6;;;5.8;;
12721;SDS011;6425;50.316;8.114;2023-03-22T03:21:01;7.9;;;5.6;;
12721;SDS011;6425;50.316;8.114;2023-03-22T03:24:03;7.9;;;5.6;;
12721;SDS011;6425;50.316;8.114;2023-03-22T03:27:01;11.3;;;5.5;;
12721;SDS011;6425;50.316;8.114;2023-03-22T03:30:00;11.3;;;5.5;;
12721;SDS011;6425;50.316;8.114;2023-03-22T03:33:01;8.4;;;5.2;;
12721;SDS011;6425;50.316;8.114;2023-03-22T03:36:00;7.6;;;5.3;;
12721;SDS011;6425;50.316;8.114;2023-03-22T03:39:00;7.6;;;5.3;;
12721;SDS011;6425;50.316;8.114;2023-03-22T03:42:00;5.6;;;4.4;;
12721;SDS011;6425;50.316;8.114;2023-03-22T03:45:00;5.6;;;4.4;;
12721;SDS011;6425;50.316;8.114;2023-03-22T03:48:01;7.9;;;4.6;;
12721;SDS011;6425;50.316;8.114;2023-03-22T03:51:00;8.4;;;4.5;;
12721;SDS011;6425;50.316;8.114;2023-03-22T03:54:00;8.4;;;4.5;;
12721;SDS011;6425;50.316;8.114;2023-03-22T03:57:00;8.2;;;4.5;;
12721;SDS011;6425;50.316;8.114;2023-03-22T04:00:00;8.2;;;4.5;;
12721;SDS011;6425;50.316;8.114;2023-03-22T04:03:00;7.7;;;5.1;;
12721;SDS011;6425;50.316;8.114;2023-03-22T04:06:00;8.6;;;5.4;;
12721;SDS011;6425;50.316;8.114;2023-03-22T04:09:00;8.6;;;5.4;;
12721;SDS011;6425;50.316;8.114;2023-03-22T04:12:00;7.3;;;5.3;;
12721;SDS011;6425;50.316;8.114;2023-03-22T04:15:00;7.3;;;5.3;;
12721;SDS011;6425;50.316;8.114;2023-03-22T04:18:00;8.4;;;5.1;;
12721;SDS011;6425;50.316;8.114;2023-03-22T04:21:00;7.3;;;5.5;;
12721;SDS011;6425;50.316;8.114;2023-03-22T04:24:00;7.3;;;5.5;;
12721;SDS011;6425;50.316;8.114;2023-03-22T04:27:00;8.5;;;5.3;;
12721;SDS011;6425;50.316;8.114;2023-03-22T04:30:00;8.5;;;5.3;;
12721;SDS011;6425;50.316;8.114;2023-03-22T04:33:00;9.9;;;5.7;;
12721;SDS011;6425;50.316;8.114;2023-03-22T04:36:00;8.6;;;5.8;;
12721;SDS011;6425;50.316;8.114;2023-03-22T04:39:00;8.6;;;5.8;;
12721;SDS011;6425;50.316;8.114;2023-03-22T04:42:00;10.1;;;5.7;;
12721;SDS011;6425;50.316;8.114;2023-03-22T04:45:00;10.1;;;5.7;;
12721;SDS011;6425;50.316;8.114;2023-03-22T04:48:00;10.4;;;6.7;;
12721;SDS011;6425;50.316;8.114;2023-03-22T04:51:00;10.3;;;6.5;;
12721;SDS011;6425;50.316;8.114;2023-03-22T04:54:00;10.3;;;6.5;;
12721;SDS011;6425;50.316;8.114;2023-03-22T04:57:00;9;;;6.5;;
12721;SDS011;6425;50.316;8.114;2023-03-22T05:00:00;9;;;6.5;;
12721;SDS011;6425;50.316;8.114;2023-03-22T05:03:00;11.1;;;6.9;;
12721;SDS011;6425;50.316;8.114;2023-03-22T05:06:01;12.2;;;6.9;;
12721;SDS011;6425;50.316;8.114;2023-03-22T05:09:00;12.2;;;6.9;;
12721;SDS011;6425;50.316;8.114;2023-03-22T05:12:00;12.2;;;8;;
12721;SDS011;6425;50.316;8.114;2023-03-22T05:15:00;12.2;;;8;;
12721;SDS011;6425;50.316;8.114;2023-03-22T05:18:00;9.8;;;7.3;;
12721;SDS011;6425;50.316;8.114;2023-03-22T05:21:00;10.4;;;7.6;;
12721;SDS011;6425;50.316;8.114;2023-03-22T05:24:00;10.4;;;7.6;;
12721;SDS011;6425;50.316;8.114;2023-03-22T05:27:00;10.9;;;7.8;;
12721;SDS011;6425;50.316;8.114;2023-03-22T05:30:00;10.9;;;7.8;;
12721;SDS011;6425;50.316;8.114;2023-03-22T05:33:00;10.3;;;7.7;;
12721;SDS011;6425;50.316;8.114;2023-03-22T05:36:00;12.7;;;8.2;;
12721;SDS011;6425;50.316;8.114;2023-03-22T05:39:01;12.7;;;8.2;;
12721;SDS011;6425;50.316;8.114;2023-03-22T05:42:00;13.4;;;7.6;;
12721;SDS011;6425;50.316;8.114;2023-03-22T05:45:00;13.4;;;7.6;;
12721;SDS011;6425;50.316;8.114;2023-03-22T05:48:00;12.5;;;7.4;;
12721;SDS011;6425;50.316;8.114;2023-03-22T05:51:00;10;;;7.4;;
12721;SDS011;6425;50.316;8.114;2023-03-22T05:54:00;10;;;7.4;;
12721;SDS011;6425;50.316;8.114;2023-03-22T05:57:00;11.5;;;7.7;;
12721;SDS011;6425;50.316;8.114;2023-03-22T06:00:00;11.3;;;7.6;;
12721;SDS011;6425;50.316;8.114;2023-03-22T06:03:00;11.3;;;7.6;;
12721;SDS011;6425;50.316;8.114;2023-03-22T06:06:00;11.6;;;7.8;;
12721;SDS011;6425;50.316;8.114;2023-03-22T06:09:00;11.6;;;7.8;;
12721;SDS011;6425;50.316;8.114;2023-03-22T06:12:00;12;;;7.6;;
12721;SDS011;6425;50.316;8.114;2023-03-22T06:15:00;9.5;;;7.4;;
12721;SDS011;6425;50.316;8.114;2023-03-22T06:18:00;9.5;;;7.4;;
12721;SDS011;6425;50.316;8.114;2023-03-22T06:21:00;9.6;;;7.3;;
12721;SDS011;6425;50.316;8.114;2023-03-22T06:24:00;9.6;;;7.3;;
12721;SDS011;6425;50.316;8.114;2023-03-22T06:27:00;12.5;;;8.1;;
12721;SDS011;6425;50.316;8.114;2023-03-22T06:30:00;13.4;;;8.6;;
12721;SDS011;6425;50.316;8.114;2023-03-22T06:33:00;13.4;;;8.6;;
12721;SDS011;6425;50.316;8.114;2023-03-22T06:36:00;12.7;;;8.5;;
12721;SDS011;6425;50.316;8.114;2023-03-22T06:39:00;12.7;;;8.5;;
12721;SDS011;6425;50.316;8.114;2023-03-22T06:42:00;12.1;;;8.9;;
12721;SDS011;6425;50.316;8.114;2023-03-22T06:45:00;11.9;;;9.4;;
12721;SDS011;6425;50.316;8.114;2023-03-22T06:48:00;11.9;;;9.4;;
12721;SDS011;6425;50.316;8.114;2023-03-22T06:51:00;15.5;;;9.6;;
12721;SDS011;6425;50.316;8.114;2023-03-22T06:54:00;15.5;;;9.6;;
12721;SDS011;6425;50.316;8.114;2023-03-22T06:57:00;11.7;;;9.6;;
12721;SDS011;6425;50.316;8.114;2023-03-22T07:00:00;13.8;;;9.3;;
12721;SDS011;6425;50.316;8.114;2023-03-22T07:03:00;13.8;;;9.3;;
12721;SDS011;6425;50.316;8.114;2023-03-22T07:06:00;14.8;;;9.9;;
12721;SDS011;6425;50.316;8.114;2023-03-22T07:09:00;14.8;;;9.9;;
12721;SDS011;6425;50.316;8.114;2023-03-22T07:12:00;12.4;;;9.4;;
12721;SDS011;6425;50.316;8.114;2023-03-22T07:15:00;11.7;;;8.8;;
12721;SDS011;6425;50.316;8.114;2023-03-22T07:18:00;11.7;;;8.8;;
12721;SDS011;6425;50.316;8.114;2023-03-22T07:21:00;14.1;;;9.1;;
12721;SDS011;6425;50.316;8.114;2023-03-22T07:24:00;14.1;;;9.1;;
12721;SDS011;6425;50.316;8.114;2023-03-22T07:27:00;12.6;;;9.7;;
12721;SDS011;6425;50.316;8.114;2023-03-22T07:30:00;11.9;;;8.6;;
12721;SDS011;6425;50.316;8.114;2023-03-22T07:33:00;11.9;;;8.6;;
12721;SDS011;6425;50.316;8.114;2023-03-22T07:36:00;14;;;8.7;;
12721;SDS011;6425;50.316;8.114;2023-03-22T07:39:00;14;;;8.7;;
12721;SDS011;6425;50.316;8.114;2023-03-22T07:42:00;13.5;;;9.3;;
12721;SDS011;6425;50.316;8.114;2023-03-22T07:45:00;11.7;;;7.4;;
12721;SDS011;6425;50.316;8.114;2023-03-22T07:48:00;11.7;;;7.4;;
12721;SDS011;6425;50.316;8.114;2023-03-22T07:51:00;11.5;;;7.3;;
12721;SDS011;6425;50.316;8.114;2023-03-22T07:54:00;11.5;;;7.3;;
12721;SDS011;6425;50.316;8.114;2023-03-22T07:57:00;9.3;;;7.1;;
12721;SDS011;6425;50.316;8.114;2023-03-22T08:00:00;8.5;;;5.5;;
12721;SDS011;6425;50.316;8.114;2023-03-22T08:03:00;8.5;;;5.5;;
12721;SDS011;6425;50.316;8.114;2023-03-22T08:06:00;7.9;;;4.9;;
12721;SDS011;6425;50.316;8.114;2023-03-22T08:09:00;7.9;;;4.9;;
12721;SDS011;6425;50.316;8.114;2023-03-22T08:12:00;9.5;;;5.4;;
12721;SDS011;6425;50.316;8.114;2023-03-22T08:15:00;5.2;;;2.9;;
12721;SDS011;6425;50.316;8.114;2023-03-22T08:18:00;5.2;;;2.9;;
12721;SDS011;6425;50.316;8.114;2023-03-22T08:21:00;5.8;;;3.7;;
12721;SDS011;6425;50.316;8.114;2023-03-22T08:24:00;5.8;;;3.7;;
12721;SDS011;6425;50.316;8.114;2023-03-22T08:27:00;4.6;;;2.6;;
12721;SDS011;6425;50.316;8.114;2023-03-22T08:30:00;5.3;;;2.2;;
12721;SDS011;6425;50.316;8.114;2023-03-22T08:33:00;5.3;;;2.2;;
12721;SDS011;6425;50.316;8.114;2023-03-22T08:36:03;3.1;;;2;;
12721;SDS011;6425;50.316;8.114;2023-03-22T08:39:00;3.1;;;2;;
12721;SDS011;6425;50.316;8.114;2023-03-22T08:42:00;2.2;;;1.6;;
12721;SDS011;6425;50.316;8.114;2023-03-22T08:45:00;4.1;;;2.1;;
12721;SDS011;6425;50.316;8.114;2023-03-22T08:48:00;4.1;;;2.1;;
12721;SDS011;6425;50.316;8.114;2023-03-22T08:51:00;3.9;;;2.5;;
12721;SDS011;6425;50.316;8.114;2023-03-22T08:54:00;3.9;;;2.5;;
12721;SDS011;6425;50.316;8.114;2023-03-22T08:57:00;4.5;;;2.2;;
12721;SDS011;6425;50.316;8.114;2023-03-22T09:00:00;4;;;2.2;;
12721;SDS011;6425;50.316;8.114;2023-03-22T09:03:00;4;;;2.2;;
12721;SDS011;6425;50.316;8.114;2023-03-22T09:06:00;3.5;;;1.7;;
12721;SDS011;6425;50.316;8.114;2023-03-22T09:09:00;3.5;;;1.7;;
12721;SDS011;6425;50.316;8.114;2023-03-22T09:12:00;3.3;;;2.1;;
12721;SDS011;6425;50.316;8.114;2023-03-22T09:15:00;3.6;;;1.8;;
12721;SDS011;6425;50.316;8.114;2023-03-22T09:18:00;3.6;;;1.8;;
12721;SDS011;6425;50.316;8.114;2023-03-22T09:21:00;2.1;;;1.9;;
12721;SDS011;6425;50.316;8.114;2023-03-22T09:24:00;2.3;;;1.7;;
12721;SDS011;6425;50.316;8.114;2023-03-22T09:27:00;2.6;;;1.5;;
12721;SDS011;6425;50.316;8.114;2023-03-22T09:30:00;2.8;;;1.6;;
12721;SDS011;6425;50.316;8.114;2023-03-22T09:33:00;2.8;;;1.6;;
12721;SDS011;6425;50.316;8.114;2023-03-22T09:36:00;5.3;;;2.5;;
12721;SDS011;6425;50.316;8.114;2023-03-22T09:39:00;3.1;;;2.8;;
12721;SDS011;6425;50.316;8.114;2023-03-22T09:42:00;3.1;;;2.8;;
12721;SDS011;6425;50.316;8.114;2023-03-22T09:45:00;3.3;;;2.7;;
12721;SDS011;6425;50.316;8.114;2023-03-22T09:48:00;3.3;;;2.7;;
12721;SDS011;6425;50.316;8.114;2023-03-22T09:51:00;3;;;2.8;;
12721;SDS011;6425;50.316;8.114;2023-03-22T09:54:00;1.2;;;1.1;;
12721;SDS011;6425;50.316;8.114;2023-03-22T09:57:01;1.2;;;1.1;;
12721;SDS011;6425;50.316;8.114;2023-03-22T10:00:02;3.1;;;2;;
12721;SDS011;6425;50.316;8.114;2023-03-22T10:03:01;3.1;;;2;;
12721;SDS011;6425;50.316;8.114;2023-03-22T10:06:00;2.3;;;1.5;;
12721;SDS011;6425;50.316;8.114;2023-03-22T10:09:02;1.9;;;1.8;;
12721;SDS011;6425;50.316;8.114;2023-03-22T10:12:00;1.9;;;1.8;;
12721;SDS011;6425;50.316;8.114;2023-03-22T10:15:02;2.2;;;1.6;;
12721;SDS011;6425;50.316;8.114;2023-03-22T10:18:00;2.2;;;1.6;;
12721;SDS011;6425;50.316;8.114;2023-03-22T10:21:00;2.6;;;1.8;;
12721;SDS011;6425;50.316;8.114;2023-03-22T10:24:00;2.1;;;1.9;;
12721;SDS011;6425;50.316;8.114;2023-03-22T10:27:00;2.1;;;1.9;;
12721;SDS011;6425;50.316;8.114;2023-03-22T10:30:02;1.7;;;1.6;;
12721;SDS011;6425;50.316;8.114;2023-03-22T10:33:00;1.7;;;1.6;;
12721;SDS011;6425;50.316;8.114;2023-03-22T10:36:00;2.9;;;1.4;;
12721;SDS011;6425;50.316;8.114;2023-03-22T10:39:02;4.6;;;1.6;;
12721;SDS011;6425;50.316;8.114;2023-03-22T10:42:00;4.6;;;1.6;;
12721;SDS011;6425;50.316;8.114;2023-03-22T10:45:00;2.3;;;2.1;;
12721;SDS011;6425;50.316;8.114;2023-03-22T10:48:00;2.3;;;2.1;;
12721;SDS011;6425;50.316;8.114;2023-03-22T10:51:00;2.1;;;2;;
12721;SDS011;6425;50.316;8.114;2023-03-22T10:54:00;1.7;;;1.5;;
12721;SDS011;6425;50.316;8.114;2023-03-22T10:57:00;1.7;;;1.5;;
12721;SDS011;6425;50.316;8.114;2023-03-22T11:00:00;2.7;;;1.8;;
12721;SDS011;6425;50.316;8.114;2023-03-22T11:03:00;2.7;;;1.8;;
12721;SDS011;6425;50.316;8.114;2023-03-22T11:06:00;2.5;;;2.3;;
12721;SDS011;6425;50.316;8.114;2023-03-22T11:09:00;1.7;;;1.6;;
12721;SDS011;6425;50.316;8.114;2023-03-22T11:12:00;1.7;;;1.6;;
12721;SDS011;6425;50.316;8.114;2023-03-22T11:15:00;1.8;;;1.7;;
12721;SDS011;6425;50.316;8.114;2023-03-22T11:18:00;1.8;;;1.7;;
12721;SDS011;6425;50.316;8.114;2023-03-22T11:21:02;2.1;;;2;;
12721;SDS011;6425;50.316;8.114;2023-03-22T11:24:01;2.4;;;2.3;;
12721;SDS011;6425;50.316;8.114;2023-03-22T11:27:00;2.4;;;2.3;;
12721;SDS011;6425;50.316;8.114;2023-03-22T11:30:07;3.1;;;3;;
12721;SDS011;6425;50.316;8.114;2023-03-22T11:33:00;3.1;;;3;;
12721;SDS011;6425;50.316;8.114;2023-03-22T11:36:01;2.8;;;2.7;;
12721;SDS011;6425;50.316;8.114;2023-03-22T11:39:00;3.1;;;2.9;;
12721;SDS011;6425;50.316;8.114;2023-03-22T11:42:00;3.1;;;2.9;;
12721;SDS011;6425;50.316;8.114;2023-03-22T11:45:00;3;;;2.9;;
12721;SDS011;6425;50.316;8.114;2023-03-22T11:48:00;3;;;2.9;;
12721;SDS011;6425;50.316;8.114;2023-03-22T11:51:04;3.8;;;3.6;;
12721;SDS011;6425;50.316;8.114;2023-03-22T11:54:02;15.2;;;4.9;;
12721;SDS011;6425;50.316;8.114;2023-03-22T11:57:01;15.2;;;4.9;;
12721;SDS011;6425;50.316;8.114;2023-03-22T12:00:00;4.5;;;4.1;;
12721;SDS011;6425;50.316;8.114;2023-03-22T12:03:00;4.5;;;4.1;;
12721;SDS011;6425;50.316;8.114;2023-03-22T12:06:00;82.9;;;12.6;;
12721;SDS011;6425;50.316;8.114;2023-03-22T12:09:00;223.6;;;28;;
12721;SDS011;6425;50.316;8.114;2023-03-22T12:12:00;223.6;;;28;;
12721;SDS011;6425;50.316;8.114;2023-03-22T12:15:01;2.3;;;2.2;;
12721;SDS011;6425;50.316;8.114;2023-03-22T12:18:01;2.3;;;2.2;;
12721;SDS011;6425;50.316;8.114;2023-03-22T12:21:00;2.5;;;2.4;;
12721;SDS011;6425;50.316;8.114;2023-03-22T12:24:00;3.2;;;3;;
12721;SDS011;6425;50.316;8.114;2023-03-22T12:27:03;3.2;;;3;;
12721;SDS011;6425;50.316;8.114;2023-03-22T12:30:01;2.8;;;2.7;;
12721;SDS011;6425;50.316;8.114;2023-03-22T12:33:00;2.8;;;2.7;;
12721;SDS011;6425;50.316;8.114;2023-03-22T12:36:00;3.2;;;3;;
12721;SDS011;6425;50.316;8.114;2023-03-22T12:39:00;3.4;;;3.3;;
12721;SDS011;6425;50.316;8.114;2023-03-22T12:42:01;3.4;;;3.3;;
12721;SDS011;6425;50.316;8.114;2023-03-22T12:45:00;2.1;;;2.1;;
12721;SDS011;6425;50.316;8.114;2023-03-22T12:48:02;2.1;;;2.1;;
12721;SDS011;6425;50.316;8.114;2023-03-22T12:51:00;4.1;;;3.9;;
12721;SDS011;6425;50.316;8.114;2023-03-22T12:54:00;4.5;;;4.3;;
12721;SDS011;6425;50.316;8.114;2023-03-22T12:57:00;4.5;;;4.3;;
12721;SDS011;6425;50.316;8.114;2023-03-22T13:00:03;3.9;;;3.6;;
12721;SDS011;6425;50.316;8.114;2023-03-22T13:03:01;3.9;;;3.6;;
12721;SDS011;6425;50.316;8.114;2023-03-22T13:06:01;4.7;;;4.5;;
12721;SDS011;6425;50.316;8.114;2023-03-22T13:09:01;4.1;;;3.9;;
12721;SDS011;6425;50.316;8.114;2023-03-22T13:12:32;4.1;;;3.9;;
12721;SDS011;6425;50.316;8.114;2023-03-22T13:15:01;3;;;2.9;;
12721;SDS011;6425;50.316;8.114;2023-03-22T13:18:00;3;;;2.9;;
12721;SDS011;6425;50.316;8.114;2023-03-22T13:21:08;3.3;;;3.2;;
12721;SDS011;6425;50.316;8.114;2023-03-22T13:24:01;3.9;;;3.7;;
12721;SDS011;6425;50.316;8.114;2023-03-22T13:27:00;3.9;;;3.7;;
12721;SDS011;6425;50.316;8.114;2023-03-22T13:30:00;3.2;;;3.1;;
12721;SDS011;6425;50.316;8.114;2023-03-22T13:33:00;3.3;;;3.2;;
12721;SDS011;6425;50.316;8.114;2023-03-22T13:36:02;3.9;;;3.8;;
12721;SDS011;6425;50.316;8.114;2023-03-22T13:39:00;4.1;;;4;;
12721;SDS011;6425;50.316;8.114;2023-03-22T13:42:04;4.1;;;4;;
12721;SDS011;6425;50.316;8.114;2023-03-22T13:45:00;3;;;2.9;;
12721;SDS011;6425;50.316;8.114;2023-03-22T13:48:01;4.1;;;4;;
12721;SDS011;6425;50.316;8.114;2023-03-22T13:51:06;4.1;;;4;;
12721;SDS011;6425;50.316;8.114;2023-03-22T13:54:01;3.6;;;3.4;;
12721;SDS011;6425;50.316;8.114;2023-03-22T13:57:00;3.6;;;3.4;;
12721;SDS011;6425;50.316;8.114;2023-03-22T14:00:01;3.2;;;3;;
12721;SDS011;6425;50.316;8.114;2023-03-22T14:03:00;3.5;;;3.2;;
12721;SDS011;6425;50.316;8.114;2023-03-22T14:06:02;3.5;;;3.2;;
12721;SDS011;6425;50.316;8.114;2023-03-22T14:09:00;4.1;;;3.9;;
12721;SDS011;6425;50.316;8.114;2023-03-22T14:12:02;4.1;;;3.9;;
12721;SDS011;6425;50.316;8.114;2023-03-22T14:15:00;4.6;;;4.4;;
12721;SDS011;6425;50.316;8.114;2023-03-22T14:18:01;3.2;;;3.1;;
12721;SDS011;6425;50.316;8.114;2023-03-22T14:21:00;3.2;;;3.1;;
12721;SDS011;6425;50.316;8.114;2023-03-22T14:24:00;2.8;;;2.6;;
12721;SDS011;6425;50.316;8.114;2023-03-22T14:27:00;2.8;;;2.6;;
12721;SDS011;6425;50.316;8.114;2023-03-22T14:30:00;3.2;;;3.1;;
12721;SDS011;6425;50.316;8.114;2023-03-22T14:33:00;3.2;;;3;;
12721;SDS011;6425;50.316;8.114;2023-03-22T14:36:01;3.2;;;3;;
12721;SDS011;6425;50.316;8.114;2023-03-22T14:39:01;4;;;3.7;;
12721;SDS011;6425;50.316;8.114;2023-03-22T14:42:00;4;;;3.7;;
12721;SDS011;6425;50.316;8.114;2023-03-22T14:45:00;4.2;;;4;;
12721;SDS011;6425;50.316;8.114;2023-03-22T14:48:00;2.8;;;2.8;;
12721;SDS011;6425;50.316;8.114;2023-03-22T14:51:00;2.8;;;2.8;;
12721;SDS011;6425;50.316;8.114;2023-03-22T14:54:01;3.3;;;3.1;;
12721;SDS011;6425;50.316;8.114;2023-03-22T14:57:00;3.3;;;3.1;;
12721;SDS011;6425;50.316;8.114;2023-03-22T15:00:00;3.9;;;3.7;;
12721;SDS011;6425;50.316;8.114;2023-03-22T15:03:01;4.1;;;3.9;;
12721;SDS011;6425;50.316;8.114;2023-03-22T15:06:00;4.1;;;3.9;;
12721;SDS011;6425;50.316;8.114;2023-03-22T15:09:02;4.5;;;4.2;;
12721;SDS011;6425;50.316;8.114;2023-03-22T15:12:00;4.5;;;4.2;;
12721;SDS011;6425;50.316;8.114;2023-03-22T15:15:00;4.2;;;3.9;;
12721;SDS011;6425;50.316;8.114;2023-03-22T15:18:00;5;;;4.7;;
12721;SDS011;6425;50.316;8.114;2023-03-22T15:21:00;5;;;4.7;;
12721;SDS011;6425;50.316;8.114;2023-03-22T15:24:10;4;;;3.8;;
12721;SDS011;6425;50.316;8.114;2023-03-22T15:27:00;4;;;3.8;;
12721;SDS011;6425;50.316;8.114;2023-03-22T15:30:00;4.8;;;4.5;;
12721;SDS011;6425;50.316;8.114;2023-03-22T15:33:01;3.7;;;3.5;;
12721;SDS011;6425;50.316;8.114;2023-03-22T15:36:00;3.7;;;3.5;;
12721;SDS011;6425;50.316;8.114;2023-03-22T15:39:00;4;;;3.6;;
12721;SDS011;6425;50.316;8.114;2023-03-22T15:42:03;4;;;3.6;;
12721;SDS011;6425;50.316;8.114;2023-03-22T15:45:00;3.4;;;3.1;;
12721;SDS011;6425;50.316;8.114;2023-03-22T15:48:02;3.5;;;3.4;;
12721;SDS011;6425;50.316;8.114;2023-03-22T15:51:00;3.5;;;3.4;;
12721;SDS011;6425;50.316;8.114;2023-03-22T15:54:01;4.6;;;3.4;;
12721;SDS011;6425;50.316;8.114;2023-03-22T15:57:06;4.6;;;3.4;;
12721;SDS011;6425;50.316;8.114;2023-03-22T16:00:01;3.3;;;3.1;;
12721;SDS011;6425;50.316;8.114;2023-03-22T16:03:06;7.2;;;4.1;;
12721;SDS011;6425;50.316;8.114;2023-03-22T16:06:00;7.2;;;4.1;;
12721;SDS011;6425;50.316;8.114;2023-03-22T16:09:00;3.7;;;3.5;;
12721;SDS011;6425;50.316;8.114;2023-03-22T16:12:00;3.7;;;3.5;;
12721;SDS011;6425;50.316;8.114;2023-03-22T16:15:00;4.9;;;4.6;;
12721;SDS011;6425;50.316;8.114;2023-03-22T16:18:00;4.1;;;3.8;;
12721;SDS011;6425;50.316;8.114;2023-03-22T16:21:00;4.1;;;3.8;;
12721;SDS011;6425;50.316;8.114;2023-03-22T16:24:00;3.1;;;3;;
12721;SDS011;6425;50.316;8.114;2023-03-22T16:27:00;3.1;;;3;;
12721;SDS011;6425;50.316;8.114;2023-03-22T16:30:00;2.8;;;2.7;;
12721;SDS011;6425;50.316;8.114;2023-03-22T16:33:00;2.8;;;2.7;;
12721;SDS011;6425;50.316;8.114;2023-03-22T16:36:00;2.8;;;2.7;;
12721;SDS011;6425;50.316;8.114;2023-03-22T16:39:00;3.2;;;3;;
12721;SDS011;6425;50.316;8.114;2023-03-22T16:42:00;3.2;;;3;;
12721;SDS011;6425;50.316;8.114;2023-03-22T16:45:00;3.5;;;3.3;;
12721;SDS011;6425;50.316;8.114;2023-03-22T16:48:00;3.8;;;3.6;;
12721;SDS011;6425;50.316;8.114;2023-03-22T16:51:00;3.8;;;3.6;;
12721;SDS011;6425;50.316;8.114;2023-03-22T16:54:00;5.4;;;3.5;;
12721;SDS011;6425;50.316;8.114;2023-03-22T16:57:00;5.4;;;3.5;;
12721;SDS011;6425;50.316;8.114;2023-03-22T17:00:00;4.2;;;3.9;;
12721;SDS011;6425;50.316;8.114;2023-03-22T17:03:00;4.2;;;3.9;;
12721;SDS011;6425;50.316;8.114;2023-03-22T17:06:00;4.2;;;3.9;;
12721;SDS011;6425;50.316;8.114;2023-03-22T17:09:00;3.7;;;3.5;;
12721;SDS011;6425;50.316;8.114;2023-03-22T17:12:00;3.7;;;3.5;;
12721;SDS011;6425;50.316;8.114;2023-03-22T17:15:00;3.2;;;3;;
12721;SDS011;6425;50.316;8.114;2023-03-22T17:18:00;3.1;;;2.9;;
12721;SDS011;6425;50.316;8.114;2023-03-22T17:21:00;3.1;;;2.9;;
12721;SDS011;6425;50.316;8.114;2023-03-22T17:24:00;3.4;;;3.2;;
12721;SDS011;6425;50.316;8.114;2023-03-22T17:27:00;3.3;;;3;;
12721;SDS011;6425;50.316;8.114;2023-03-22T17:30:00;3.3;;;3;;
12721;SDS011;6425;50.316;8.114;2023-03-22T17:33:00;4.2;;;3.9;;
12721;SDS011;6425;50.316;8.114;2023-03-22T17:36:00;4.2;;;3.9;;
12721;SDS011;6425;50.316;8.114;2023-03-22T17:39:00;3.1;;;2.9;;
12721;SDS011;6425;50.316;8.114;2023-03-22T17:42:00;4.6;;;4;;
12721;SDS011;6425;50.316;8.114;2023-03-22T17:45:00;4.6;;;4;;
12721;SDS011;6425;50.316;8.114;2023-03-22T17:48:00;3;;;2.6;;
12721;SDS011;6425;50.316;8.114;2023-03-22T17:51:00;3;;;2.6;;
12721;SDS011;6425;50.316;8.114;2023-03-22T17:54:00;8.6;;;3.4;;
12721;SDS011;6425;50.316;8.114;2023-03-22T17:57:00;3.6;;;3.5;;
12721;SDS011;6425;50.316;8.114;2023-03-22T18:00:00;3.6;;;3.5;;
12721;SDS011;6425;50.316;8.114;2023-03-22T18:03:00;2.5;;;2.4;;
12721;SDS011;6425;50.316;8.114;2023-03-22T18:06:00;2.5;;;2.4;;
12721;SDS011;6425;50.316;8.114;2023-03-22T18:09:00;5.4;;;2.9;;
12721;SDS011;6425;50.316;8.114;2023-03-22T18:12:00;3.7;;;3.5;;
12721;SDS011;6425;50.316;8.114;2023-03-22T18:15:00;3.7;;;3.5;;
12721;SDS011;6425;50.316;8.114;2023-03-22T18:18:00;2.3;;;2.2;;
12721;SDS011;6425;50.316;8.114;2023-03-22T18:21:00;2.3;;;2.2;;
12721;SDS011;6425;50.316;8.114;2023-03-22T18:24:00;3;;;2.9;;
12721;SDS011;6425;50.316;8.114;2023-03-22T18:27:00;3.7;;;3.6;;
12721;SDS011;6425;50.316;8.114;2023-03-22T18:30:00;3.7;;;3.6;;
12721;SDS011;6425;50.316;8.114;2023-03-22T18:33:00;3;;;2.9;;
12721;SDS011;6425;50.316;8.114;2023-03-22T18:36:00;3;;;2.9;;
12721;SDS011;6425;50.316;8.114;2023-03-22T18:39:00;3.3;;;3.1;;
12721;SDS011;6425;50.316;8.114;2023-03-22T18:42:00;3;;;2.9;;
12721;SDS011;6425;50.316;8.114;2023-03-22T18:45:00;3;;;2.9;;
12721;SDS011;6425;50.316;8.114;2023-03-22T18:48:00;3.1;;;3;;
12721;SDS011;6425;50.316;8.114;2023-03-22T18:51:00;3.1;;;3;;
12721;SDS011;6425;50.316;8.114;2023-03-22T18:54:00;3.3;;;3.1;;
12721;SDS011;6425;50.316;8.114;2023-03-22T18:57:00;3.9;;;3.6;;